sensor_id;sensor_type;location;lat;lon;timestamp;P1;durP1;ratioP1;P2;durP2;ratioP2
14768;SDS011;7476;49.404;11.152;2024-03-23T00:53:54;8.83;;;5.10;;
14768;SDS011;7476;49.404;11.152;2024-03-23T00:56:21;8.70;;;5.40;;
14768;SDS011;7476;49.404;11.152;2024-03-23T00:58:46;6.00;;;5.30;;
14768;SDS011;7476;49.404;11.152;2024-03-23T01:01:13;6.10;;;5.10;;
14768;SDS011;7476;49.404;11.152;2024-03-23T01:03:39;7.97;;;5.63;;
14768;SDS011;7476;49.404;11.152;2024-03-23T01:06:05;5.77;;;5.17;;
14768;SDS011;7476;49.404;11.152;2024-03-23T01:08:31;7.47;;;5.13;;
14768;SDS011;7476;49.404;11.152;2024-03-23T01:11:00;7.57;;;5.67;;
14768;SDS011;7476;49.404;11.152;2024-03-23T01:13:26;6.67;;;5.53;;
14768;SDS011;7476;49.404;11.152;2024-03-23T01:15:54;8.03;;;6.03;;
14768;SDS011;7476;49.404;11.152;2024-03-23T01:18:20;8.20;;;6.10;;
14768;SDS011;7476;49.404;11.152;2024-03-23T01:20:48;10.43;;;6.63;;
14768;SDS011;7476;49.404;11.152;2024-03-23T01:23:13;8.17;;;5.90;;
14768;SDS011;7476;49.404;11.152;2024-03-23T01:25:40;7.63;;;5.97;;
14768;SDS011;7476;49.404;11.152;2024-03-23T01:28:07;7.90;;;5.83;;
14768;SDS011;7476;49.404;11.152;2024-03-23T01:30:34;7.97;;;5.73;;
14768;SDS011;7476;49.404;11.152;2024-03-23T01:33:00;7.70;;;6.07;;
14768;SDS011;7476;49.404;11.152;2024-03-23T01:35:27;8.80;;;6.43;;
14768;SDS011;7476;49.404;11.152;2024-03-23T01:37:53;8.50;;;6.53;;
14768;SDS011;7476;49.404;11.152;2024-03-23T01:40:20;9.07;;;6.27;;
14768;SDS011;7476;49.404;11.152;2024-03-23T01:42:54;7.23;;;6.43;;
14768;SDS011;7476;49.404;11.152;2024-03-23T01:45:22;10.77;;;7.83;;
14768;SDS011;7476;49.404;11.152;2024-03-23T01:47:48;8.87;;;7.30;;
14768;SDS011;7476;49.404;11.152;2024-03-23T01:50:15;9.50;;;7.40;;
14768;SDS011;7476;49.404;11.152;2024-03-23T01:52:41;9.33;;;7.57;;
14768;SDS011;7476;49.404;11.152;2024-03-23T01:55:09;10.90;;;8.10;;
14768;SDS011;7476;49.404;11.152;2024-03-23T01:57:35;10.00;;;8.47;;
14768;SDS011;7476;49.404;11.152;2024-03-23T02:00:01;10.63;;;9.13;;
14768;SDS011;7476;49.404;11.152;2024-03-23T02:02:29;10.07;;;8.07;;
14768;SDS011;7476;49.404;11.152;2024-03-23T02:04:55;11.03;;;7.87;;
14768;SDS011;7476;49.404;11.152;2024-03-23T02:07:21;9.67;;;7.47;;
14768;SDS011;7476;49.404;11.152;2024-03-23T02:09:48;14.80;;;8.60;;
14768;SDS011;7476;49.404;11.152;2024-03-23T02:12:15;9.13;;;6.83;;
14768;SDS011;7476;49.404;11.152;2024-03-23T02:14:42;8.57;;;7.00;;
14768;SDS011;7476;49.404;11.152;2024-03-23T02:17:08;8.60;;;6.57;;
14768;SDS011;7476;49.404;11.152;2024-03-23T02:19:37;9.13;;;6.43;;
14768;SDS011;7476;49.404;11.152;2024-03-23T02:22:03;9.87;;;6.73;;
14768;SDS011;7476;49.404;11.152;2024-03-23T02:24:32;8.00;;;6.57;;
14768;SDS011;7476;49.404;11.152;2024-03-23T02:26:59;9.87;;;6.73;;
14768;SDS011;7476;49.404;11.152;2024-03-23T02:29:25;8.50;;;6.47;;
14768;SDS011;7476;49.404;11.152;2024-03-23T02:31:51;9.50;;;6.73;;
14768;SDS011;7476;49.404;11.152;2024-03-23T02:34:18;9.50;;;6.10;;
14768;SDS011;7476;49.404;11.152;2024-03-23T02:36:43;7.30;;;6.07;;
14768;SDS011;7476;49.404;11.152;2024-03-23T02:39:10;9.47;;;6.57;;
14768;SDS011;7476;49.404;11.152;2024-03-23T02:41:37;6.63;;;5.93;;
14768;SDS011;7476;49.404;11.152;2024-03-23T02:44:04;7.47;;;5.90;;
14768;SDS011;7476;49.404;11.152;2024-03-23T02:46:30;8.40;;;6.47;;
14768;SDS011;7476;49.404;11.152;2024-03-23T02:48:57;7.83;;;6.47;;
14768;SDS011;7476;49.404;11.152;2024-03-23T02:51:22;8.37;;;6.37;;
14768;SDS011;7476;49.404;11.152;2024-03-23T02:53:49;8.57;;;6.03;;
14768;SDS011;7476;49.404;11.152;2024-03-23T02:56:15;8.53;;;6.13;;
14768;SDS011;7476;49.404;11.152;2024-03-23T02:58:43;8.90;;;6.33;;
14768;SDS011;7476;49.404;11.152;2024-03-23T03:01:08;9.97;;;6.50;;
14768;SDS011;7476;49.404;11.152;2024-03-23T03:03:35;8.47;;;6.80;;
14768;SDS011;7476;49.404;11.152;2024-03-23T03:06:01;9.57;;;7.13;;
14768;SDS011;7476;49.404;11.152;2024-03-23T03:08:28;9.47;;;7.20;;
14768;SDS011;7476;49.404;11.152;2024-03-23T03:10:54;9.53;;;6.73;;
14768;SDS011;7476;49.404;11.152;2024-03-23T03:13:20;8.00;;;7.17;;
14768;SDS011;7476;49.404;11.152;2024-03-23T03:15:47;8.43;;;7.40;;
14768;SDS011;7476;49.404;11.152;2024-03-23T03:18:14;11.40;;;8.10;;
14768;SDS011;7476;49.404;11.152;2024-03-23T03:20:40;12.13;;;7.40;;
14768;SDS011;7476;49.404;11.152;2024-03-23T03:23:07;8.57;;;7.30;;
14768;SDS011;7476;49.404;11.152;2024-03-23T03:25:32;10.33;;;7.23;;
14768;SDS011;7476;49.404;11.152;2024-03-23T03:27:59;12.93;;;8.27;;
14768;SDS011;7476;49.404;11.152;2024-03-23T03:30:25;10.17;;;7.60;;
14768;SDS011;7476;49.404;11.152;2024-03-23T03:32:53;11.43;;;7.70;;
14768;SDS011;7476;49.404;11.152;2024-03-23T03:35:19;11.07;;;8.00;;
14768;SDS011;7476;49.404;11.152;2024-03-23T03:37:46;11.50;;;7.90;;
14768;SDS011;7476;49.404;11.152;2024-03-23T03:40:12;11.30;;;8.73;;
14768;SDS011;7476;49.404;11.152;2024-03-23T03:42:39;11.07;;;8.40;;
14768;SDS011;7476;49.404;11.152;2024-03-23T03:45:06;10.00;;;7.93;;
14768;SDS011;7476;49.404;11.152;2024-03-23T03:47:33;10.93;;;8.03;;
14768;SDS011;7476;49.404;11.152;2024-03-23T03:50:00;12.07;;;8.20;;
14768;SDS011;7476;49.404;11.152;2024-03-23T03:52:26;10.37;;;8.40;;
14768;SDS011;7476;49.404;11.152;2024-03-23T03:54:55;11.80;;;8.17;;
14768;SDS011;7476;49.404;11.152;2024-03-23T03:57:28;9.97;;;7.90;;
14768;SDS011;7476;49.404;11.152;2024-03-23T03:59:54;11.67;;;7.83;;
14768;SDS011;7476;49.404;11.152;2024-03-23T04:02:20;10.97;;;7.43;;
14768;SDS011;7476;49.404;11.152;2024-03-23T04:04:46;11.37;;;7.73;;
14768;SDS011;7476;49.404;11.152;2024-03-23T04:07:14;9.63;;;7.33;;
14768;SDS011;7476;49.404;11.152;2024-03-23T04:09:40;10.60;;;8.50;;
14768;SDS011;7476;49.404;11.152;2024-03-23T04:12:06;9.77;;;7.67;;
14768;SDS011;7476;49.404;11.152;2024-03-23T04:14:32;8.17;;;7.20;;
14768;SDS011;7476;49.404;11.152;2024-03-23T04:16:59;12.00;;;7.83;;
14768;SDS011;7476;49.404;11.152;2024-03-23T04:19:24;12.10;;;8.13;;
14768;SDS011;7476;49.404;11.152;2024-03-23T04:21:51;10.57;;;7.60;;
14768;SDS011;7476;49.404;11.152;2024-03-23T04:24:18;10.70;;;7.83;;
14768;SDS011;7476;49.404;11.152;2024-03-23T04:26:46;9.30;;;7.80;;
14768;SDS011;7476;49.404;11.152;2024-03-23T04:29:12;9.07;;;7.10;;
14768;SDS011;7476;49.404;11.152;2024-03-23T04:31:38;9.23;;;7.67;;
14768;SDS011;7476;49.404;11.152;2024-03-23T04:34:04;9.23;;;7.60;;
14768;SDS011;7476;49.404;11.152;2024-03-23T04:36:31;10.17;;;6.90;;
14768;SDS011;7476;49.404;11.152;2024-03-23T04:38:57;9.00;;;7.17;;
14768;SDS011;7476;49.404;11.152;2024-03-23T04:41:26;8.17;;;7.07;;
14768;SDS011;7476;49.404;11.152;2024-03-23T04:43:53;8.23;;;7.17;;
14768;SDS011;7476;49.404;11.152;2024-03-23T04:46:20;8.27;;;7.37;;
14768;SDS011;7476;49.404;11.152;2024-03-23T04:48:46;8.37;;;6.80;;
14768;SDS011;7476;49.404;11.152;2024-03-23T04:51:19;8.57;;;6.57;;
14768;SDS011;7476;49.404;11.152;2024-03-23T04:53:47;8.40;;;7.20;;
14768;SDS011;7476;49.404;11.152;2024-03-23T04:56:14;8.10;;;6.83;;
14768;SDS011;7476;49.404;11.152;2024-03-23T04:58:41;10.47;;;6.90;;
14768;SDS011;7476;49.404;11.152;2024-03-23T05:01:07;7.03;;;6.33;;
14768;SDS011;7476;49.404;11.152;2024-03-23T05:03:33;10.10;;;6.70;;
14768;SDS011;7476;49.404;11.152;2024-03-23T05:06:00;6.90;;;6.20;;
14768;SDS011;7476;49.404;11.152;2024-03-23T05:08:26;9.27;;;6.57;;
14768;SDS011;7476;49.404;11.152;2024-03-23T05:10:52;9.33;;;6.53;;
14768;SDS011;7476;49.404;11.152;2024-03-23T05:13:18;6.90;;;5.97;;
14768;SDS011;7476;49.404;11.152;2024-03-23T05:15:51;7.77;;;6.30;;
14768;SDS011;7476;49.404;11.152;2024-03-23T05:18:17;8.07;;;6.73;;
14768;SDS011;7476;49.404;11.152;2024-03-23T05:20:44;6.77;;;5.83;;
14768;SDS011;7476;49.404;11.152;2024-03-23T05:23:10;7.27;;;6.30;;
14768;SDS011;7476;49.404;11.152;2024-03-23T05:25:36;7.50;;;5.90;;
14768;SDS011;7476;49.404;11.152;2024-03-23T05:28:02;8.17;;;6.77;;
14768;SDS011;7476;49.404;11.152;2024-03-23T05:30:29;8.40;;;6.10;;
14768;SDS011;7476;49.404;11.152;2024-03-23T05:32:56;8.03;;;6.17;;
14768;SDS011;7476;49.404;11.152;2024-03-23T05:35:22;8.63;;;6.17;;
14768;SDS011;7476;49.404;11.152;2024-03-23T05:37:48;6.20;;;5.60;;
14768;SDS011;7476;49.404;11.152;2024-03-23T05:40:15;8.40;;;5.97;;
14768;SDS011;7476;49.404;11.152;2024-03-23T05:42:40;5.93;;;5.33;;
14768;SDS011;7476;49.404;11.152;2024-03-23T05:45:07;6.70;;;5.40;;
14768;SDS011;7476;49.404;11.152;2024-03-23T05:47:33;6.53;;;5.23;;
14768;SDS011;7476;49.404;11.152;2024-03-23T05:50:01;6.60;;;5.17;;
14768;SDS011;7476;49.404;11.152;2024-03-23T05:52:27;5.40;;;4.80;;
14768;SDS011;7476;49.404;11.152;2024-03-23T05:54:54;6.13;;;5.10;;
14768;SDS011;7476;49.404;11.152;2024-03-23T05:57:20;5.63;;;4.97;;
14768;SDS011;7476;49.404;11.152;2024-03-23T05:59:47;7.63;;;4.90;;
14768;SDS011;7476;49.404;11.152;2024-03-23T06:02:12;6.47;;;4.73;;
14768;SDS011;7476;49.404;11.152;2024-03-23T06:04:39;5.13;;;4.63;;
14768;SDS011;7476;49.404;11.152;2024-03-23T06:07:06;5.73;;;4.40;;
14768;SDS011;7476;49.404;11.152;2024-03-23T06:09:38;5.50;;;4.40;;
14768;SDS011;7476;49.404;11.152;2024-03-23T06:12:04;5.93;;;4.53;;
14768;SDS011;7476;49.404;11.152;2024-03-23T06:14:31;5.40;;;4.50;;
14768;SDS011;7476;49.404;11.152;2024-03-23T06:16:58;6.60;;;4.47;;
14768;SDS011;7476;49.404;11.152;2024-03-23T06:19:24;5.93;;;4.60;;
14768;SDS011;7476;49.404;11.152;2024-03-23T06:21:52;6.13;;;4.60;;
14768;SDS011;7476;49.404;11.152;2024-03-23T06:24:21;6.00;;;4.93;;
14768;SDS011;7476;49.404;11.152;2024-03-23T06:26:47;6.23;;;5.20;;
14768;SDS011;7476;49.404;11.152;2024-03-23T06:29:14;7.00;;;5.90;;
14768;SDS011;7476;49.404;11.152;2024-03-23T06:31:39;7.97;;;6.73;;
14768;SDS011;7476;49.404;11.152;2024-03-23T06:34:06;7.93;;;6.57;;
14768;SDS011;7476;49.404;11.152;2024-03-23T06:36:32;9.13;;;7.33;;
14768;SDS011;7476;49.404;11.152;2024-03-23T06:38:58;9.70;;;7.47;;
14768;SDS011;7476;49.404;11.152;2024-03-23T06:41:25;10.17;;;7.63;;
14768;SDS011;7476;49.404;11.152;2024-03-23T06:43:52;9.93;;;7.70;;
14768;SDS011;7476;49.404;11.152;2024-03-23T06:46:18;10.13;;;8.27;;
14768;SDS011;7476;49.404;11.152;2024-03-23T06:48:45;15.47;;;8.87;;
14768;SDS011;7476;49.404;11.152;2024-03-23T06:51:10;10.73;;;8.77;;
14768;SDS011;7476;49.404;11.152;2024-03-23T06:53:37;11.00;;;8.33;;
14768;SDS011;7476;49.404;11.152;2024-03-23T06:56:03;11.30;;;8.80;;
14768;SDS011;7476;49.404;11.152;2024-03-23T06:58:31;10.90;;;8.37;;
14768;SDS011;7476;49.404;11.152;2024-03-23T07:00:58;11.07;;;8.47;;
14768;SDS011;7476;49.404;11.152;2024-03-23T07:03:24;12.10;;;8.57;;
14768;SDS011;7476;49.404;11.152;2024-03-23T07:05:51;10.13;;;8.27;;
14768;SDS011;7476;49.404;11.152;2024-03-23T07:08:17;12.43;;;8.37;;
14768;SDS011;7476;49.404;11.152;2024-03-23T07:10:47;10.43;;;8.17;;
14768;SDS011;7476;49.404;11.152;2024-03-23T07:13:13;10.37;;;8.07;;
14768;SDS011;7476;49.404;11.152;2024-03-23T07:15:40;10.17;;;8.03;;
14768;SDS011;7476;49.404;11.152;2024-03-23T07:18:07;9.73;;;8.00;;
14768;SDS011;7476;49.404;11.152;2024-03-23T07:20:33;14.43;;;9.13;;
14768;SDS011;7476;49.404;11.152;2024-03-23T07:22:59;11.50;;;8.20;;
14768;SDS011;7476;49.404;11.152;2024-03-23T07:25:26;10.97;;;7.60;;
14768;SDS011;7476;49.404;11.152;2024-03-23T07:27:54;11.67;;;8.07;;
14768;SDS011;7476;49.404;11.152;2024-03-23T07:30:20;9.33;;;7.67;;
14768;SDS011;7476;49.404;11.152;2024-03-23T07:32:47;10.47;;;7.57;;
14768;SDS011;7476;49.404;11.152;2024-03-23T07:35:14;8.13;;;6.87;;
14768;SDS011;7476;49.404;11.152;2024-03-23T07:37:40;10.00;;;7.07;;
14768;SDS011;7476;49.404;11.152;2024-03-23T07:40:08;9.10;;;6.80;;
14768;SDS011;7476;49.404;11.152;2024-03-23T07:42:34;13.57;;;7.90;;
14768;SDS011;7476;49.404;11.152;2024-03-23T07:45:01;8.77;;;7.50;;
14768;SDS011;7476;49.404;11.152;2024-03-23T07:47:26;7.90;;;6.57;;
14768;SDS011;7476;49.404;11.152;2024-03-23T07:49:54;8.57;;;6.70;;
14768;SDS011;7476;49.404;11.152;2024-03-23T07:52:20;9.43;;;6.87;;
14768;SDS011;7476;49.404;11.152;2024-03-23T07:54:47;11.20;;;7.23;;
14768;SDS011;7476;49.404;11.152;2024-03-23T07:57:12;10.93;;;7.40;;
14768;SDS011;7476;49.404;11.152;2024-03-23T07:59:39;8.70;;;6.70;;
14768;SDS011;7476;49.404;11.152;2024-03-23T08:02:05;8.60;;;6.70;;
14768;SDS011;7476;49.404;11.152;2024-03-23T08:04:31;8.67;;;6.90;;
14768;SDS011;7476;49.404;11.152;2024-03-23T08:06:58;11.10;;;6.40;;
14768;SDS011;7476;49.404;11.152;2024-03-23T08:09:25;7.77;;;6.77;;
14768;SDS011;7476;49.404;11.152;2024-03-23T08:11:51;10.50;;;6.93;;
14768;SDS011;7476;49.404;11.152;2024-03-23T08:14:17;10.87;;;6.77;;
14768;SDS011;7476;49.404;11.152;2024-03-23T08:16:44;7.70;;;6.60;;
14768;SDS011;7476;49.404;11.152;2024-03-23T08:19:13;7.83;;;5.93;;
14768;SDS011;7476;49.404;11.152;2024-03-23T08:21:39;7.03;;;5.67;;
14768;SDS011;7476;49.404;11.152;2024-03-23T08:24:07;7.43;;;5.57;;
14768;SDS011;7476;49.404;11.152;2024-03-23T08:26:33;7.27;;;5.60;;
14768;SDS011;7476;49.404;11.152;2024-03-23T08:29:00;7.10;;;5.57;;
14768;SDS011;7476;49.404;11.152;2024-03-23T08:31:26;8.13;;;5.07;;
14768;SDS011;7476;49.404;11.152;2024-03-23T08:33:53;4.53;;;3.63;;
14768;SDS011;7476;49.404;11.152;2024-03-23T08:36:19;4.13;;;3.43;;
14768;SDS011;7476;49.404;11.152;2024-03-23T08:38:45;4.07;;;2.90;;
14768;SDS011;7476;49.404;11.152;2024-03-23T08:41:13;3.90;;;3.50;;
14768;SDS011;7476;49.404;11.152;2024-03-23T08:43:40;4.07;;;3.23;;
14768;SDS011;7476;49.404;11.152;2024-03-23T08:46:06;4.43;;;3.90;;
14768;SDS011;7476;49.404;11.152;2024-03-23T08:48:34;4.33;;;3.93;;
14768;SDS011;7476;49.404;11.152;2024-03-23T08:51:00;5.23;;;3.73;;
14768;SDS011;7476;49.404;11.152;2024-03-23T08:53:27;3.93;;;3.53;;
14768;SDS011;7476;49.404;11.152;2024-03-23T08:55:53;3.53;;;3.20;;
14768;SDS011;7476;49.404;11.152;2024-03-23T08:58:22;3.67;;;3.33;;
14768;SDS011;7476;49.404;11.152;2024-03-23T09:00:49;3.40;;;3.10;;
14768;SDS011;7476;49.404;11.152;2024-03-23T09:03:16;3.30;;;3.00;;
14768;SDS011;7476;49.404;11.152;2024-03-23T09:05:42;3.70;;;2.80;;
14768;SDS011;7476;49.404;11.152;2024-03-23T09:08:08;2.90;;;2.70;;
14768;SDS011;7476;49.404;11.152;2024-03-23T09:10:35;2.63;;;2.43;;
14768;SDS011;7476;49.404;11.152;2024-03-23T09:13:04;2.70;;;2.50;;
14768;SDS011;7476;49.404;11.152;2024-03-23T09:15:31;1.87;;;1.67;;
14768;SDS011;7476;49.404;11.152;2024-03-23T09:17:58;3.07;;;1.87;;
14768;SDS011;7476;49.404;11.152;2024-03-23T09:20:24;2.17;;;1.93;;
14768;SDS011;7476;49.404;11.152;2024-03-23T09:22:51;2.20;;;1.80;;
14768;SDS011;7476;49.404;11.152;2024-03-23T09:25:16;1.83;;;1.73;;
14768;SDS011;7476;49.404;11.152;2024-03-23T09:27:45;1.83;;;1.67;;
14768;SDS011;7476;49.404;11.152;2024-03-23T09:30:11;1.60;;;1.50;;
14768;SDS011;7476;49.404;11.152;2024-03-23T09:32:40;2.00;;;1.90;;
14768;SDS011;7476;49.404;11.152;2024-03-23T09:35:07;1.80;;;1.70;;
14768;SDS011;7476;49.404;11.152;2024-03-23T09:37:34;1.97;;;1.70;;
14768;SDS011;7476;49.404;11.152;2024-03-23T09:39:59;1.83;;;1.50;;
14768;SDS011;7476;49.404;11.152;2024-03-23T09:42:26;1.40;;;1.30;;
14768;SDS011;7476;49.404;11.152;2024-03-23T09:44:52;1.50;;;1.40;;
14768;SDS011;7476;49.404;11.152;2024-03-23T09:47:18;1.40;;;1.30;;
14768;SDS011;7476;49.404;11.152;2024-03-23T09:49:46;1.20;;;1.10;;
14768;SDS011;7476;49.404;11.152;2024-03-23T09:52:12;1.30;;;1.20;;
14768;SDS011;7476;49.404;11.152;2024-03-23T09:54:38;1.00;;;1.00;;
14768;SDS011;7476;49.404;11.152;2024-03-23T09:57:05;1.10;;;1.10;;
14768;SDS011;7476;49.404;11.152;2024-03-23T09:59:31;0.87;;;0.87;;
14768;SDS011;7476;49.404;11.152;2024-03-23T10:02:00;1.13;;;1.03;;
14768;SDS011;7476;49.404;11.152;2024-03-23T10:04:35;0.90;;;0.90;;
14768;SDS011;7476;49.404;11.152;2024-03-23T10:07:11;1.00;;;1.00;;
14768;SDS011;7476;49.404;11.152;2024-03-23T10:09:37;1.10;;;1.00;;
14768;SDS011;7476;49.404;11.152;2024-03-23T10:12:08;1.10;;;1.00;;
14768;SDS011;7476;49.404;11.152;2024-03-23T10:14:34;0.90;;;0.90;;
14768;SDS011;7476;49.404;11.152;2024-03-23T10:17:11;1.63;;;0.90;;
14768;SDS011;7476;49.404;11.152;2024-03-23T10:19:39;0.90;;;0.90;;
14768;SDS011;7476;49.404;11.152;2024-03-23T10:22:06;1.00;;;1.00;;
14768;SDS011;7476;49.404;11.152;2024-03-23T10:24:34;2.20;;;1.00;;
14768;SDS011;7476;49.404;11.152;2024-03-23T10:27:01;1.20;;;1.10;;
14768;SDS011;7476;49.404;11.152;2024-03-23T10:29:26;1.90;;;1.07;;
14768;SDS011;7476;49.404;11.152;2024-03-23T10:31:53;1.30;;;1.20;;
14768;SDS011;7476;49.404;11.152;2024-03-23T10:34:32;1.30;;;1.20;;
14768;SDS011;7476;49.404;11.152;2024-03-23T10:36:59;1.60;;;1.40;;
14768;SDS011;7476;49.404;11.152;2024-03-23T10:39:27;1.60;;;1.20;;
14768;SDS011;7476;49.404;11.152;2024-03-23T10:41:55;1.40;;;1.30;;
14768;SDS011;7476;49.404;11.152;2024-03-23T10:44:25;1.47;;;1.37;;
14768;SDS011;7476;49.404;11.152;2024-03-23T10:46:54;2.90;;;1.47;;
14768;SDS011;7476;49.404;11.152;2024-03-23T10:49:23;1.40;;;1.30;;
14768;SDS011;7476;49.404;11.152;2024-03-23T10:51:51;1.50;;;1.40;;
14768;SDS011;7476;49.404;11.152;2024-03-23T10:54:17;1.60;;;1.50;;
14768;SDS011;7476;49.404;11.152;2024-03-23T10:56:44;2.63;;;1.70;;
14768;SDS011;7476;49.404;11.152;2024-03-23T10:59:13;2.90;;;1.60;;
14768;SDS011;7476;49.404;11.152;2024-03-23T11:01:53;1.70;;;1.60;;
14768;SDS011;7476;49.404;11.152;2024-03-23T11:04:28;1.70;;;1.50;;
14768;SDS011;7476;49.404;11.152;2024-03-23T11:06:56;2.90;;;2.17;;
14768;SDS011;7476;49.404;11.152;2024-03-23T11:09:38;2.13;;;1.70;;
14768;SDS011;7476;49.404;11.152;2024-03-23T11:12:14;2.83;;;1.80;;
14768;SDS011;7476;49.404;11.152;2024-03-23T11:14:52;2.30;;;2.00;;
14768;SDS011;7476;49.404;11.152;2024-03-23T11:17:20;2.20;;;2.00;;
14768;SDS011;7476;49.404;11.152;2024-03-23T11:19:52;2.87;;;2.13;;
14768;SDS011;7476;49.404;11.152;2024-03-23T11:25:14;3.33;;;2.20;;
14768;SDS011;7476;49.404;11.152;2024-03-23T11:27:47;2.93;;;1.80;;
14768;SDS011;7476;49.404;11.152;2024-03-23T11:30:17;3.53;;;2.00;;
14768;SDS011;7476;49.404;11.152;2024-03-23T11:32:44;4.33;;;2.50;;
14768;SDS011;7476;49.404;11.152;2024-03-23T11:35:24;3.20;;;2.27;;
14768;SDS011;7476;49.404;11.152;2024-03-23T11:38:01;4.00;;;2.43;;
14768;SDS011;7476;49.404;11.152;2024-03-23T11:40:28;4.10;;;2.50;;
14768;SDS011;7476;49.404;11.152;2024-03-23T11:42:55;3.17;;;2.33;;
14768;SDS011;7476;49.404;11.152;2024-03-23T11:45:23;3.87;;;2.40;;
14768;SDS011;7476;49.404;11.152;2024-03-23T11:48:01;3.57;;;2.47;;
14768;SDS011;7476;49.404;11.152;2024-03-23T11:50:31;3.40;;;2.30;;
14768;SDS011;7476;49.404;11.152;2024-03-23T11:53:06;3.47;;;2.20;;
14768;SDS011;7476;49.404;11.152;2024-03-23T11:55:45;3.87;;;2.63;;
14768;SDS011;7476;49.404;11.152;2024-03-23T11:58:11;4.10;;;2.67;;
14768;SDS011;7476;49.404;11.152;2024-03-23T12:00:40;3.40;;;2.30;;
14768;SDS011;7476;49.404;11.152;2024-03-23T12:03:06;4.27;;;2.70;;
14768;SDS011;7476;49.404;11.152;2024-03-23T12:05:33;2.97;;;2.30;;
14768;SDS011;7476;49.404;11.152;2024-03-23T12:08:15;3.70;;;2.30;;
14768;SDS011;7476;49.404;11.152;2024-03-23T12:10:47;2.93;;;2.20;;
14768;SDS011;7476;49.404;11.152;2024-03-23T12:13:14;4.03;;;2.30;;
14768;SDS011;7476;49.404;11.152;2024-03-23T12:15:43;3.40;;;2.10;;
14768;SDS011;7476;49.404;11.152;2024-03-23T12:18:10;3.10;;;2.10;;
14768;SDS011;7476;49.404;11.152;2024-03-23T12:20:37;2.80;;;2.20;;
14768;SDS011;7476;49.404;11.152;2024-03-23T12:23:06;2.40;;;1.90;;
14768;SDS011;7476;49.404;11.152;2024-03-23T12:25:34;3.63;;;1.90;;
14768;SDS011;7476;49.404;11.152;2024-03-23T12:28:01;2.63;;;2.00;;
14768;SDS011;7476;49.404;11.152;2024-03-23T12:30:27;3.10;;;2.13;;
14768;SDS011;7476;49.404;11.152;2024-03-23T12:32:54;4.03;;;1.93;;
14768;SDS011;7476;49.404;11.152;2024-03-23T12:35:21;2.70;;;2.10;;
14768;SDS011;7476;49.404;11.152;2024-03-23T12:37:47;3.70;;;2.27;;
14768;SDS011;7476;49.404;11.152;2024-03-23T12:40:14;3.60;;;2.20;;
14768;SDS011;7476;49.404;11.152;2024-03-23T12:42:39;5.70;;;2.40;;
14768;SDS011;7476;49.404;11.152;2024-03-23T12:45:06;5.23;;;2.20;;
14768;SDS011;7476;49.404;11.152;2024-03-23T12:47:33;3.73;;;2.13;;
14768;SDS011;7476;49.404;11.152;2024-03-23T12:50:01;4.57;;;2.50;;
14768;SDS011;7476;49.404;11.152;2024-03-23T12:52:26;3.67;;;2.30;;
14768;SDS011;7476;49.404;11.152;2024-03-23T12:54:54;4.20;;;2.00;;
14768;SDS011;7476;49.404;11.152;2024-03-23T12:57:21;3.20;;;2.27;;
14768;SDS011;7476;49.404;11.152;2024-03-23T12:59:48;4.33;;;2.17;;
14768;SDS011;7476;49.404;11.152;2024-03-23T13:02:16;5.40;;;2.60;;
14768;SDS011;7476;49.404;11.152;2024-03-23T13:04:43;4.73;;;2.50;;
14768;SDS011;7476;49.404;11.152;2024-03-23T13:07:10;6.13;;;3.07;;
14768;SDS011;7476;49.404;11.152;2024-03-23T13:09:37;4.43;;;2.30;;
14768;SDS011;7476;49.404;11.152;2024-03-23T13:12:03;5.03;;;2.40;;
14768;SDS011;7476;49.404;11.152;2024-03-23T13:14:30;4.00;;;2.30;;
14768;SDS011;7476;49.404;11.152;2024-03-23T13:16:56;4.90;;;2.50;;
14768;SDS011;7476;49.404;11.152;2024-03-23T13:19:22;5.47;;;2.90;;
14768;SDS011;7476;49.404;11.152;2024-03-23T13:21:51;4.23;;;2.50;;
14768;SDS011;7476;49.404;11.152;2024-03-23T13:24:22;7.60;;;3.87;;
14768;SDS011;7476;49.404;11.152;2024-03-23T13:26:49;5.17;;;2.87;;
14768;SDS011;7476;49.404;11.152;2024-03-23T13:29:16;7.50;;;2.90;;
14768;SDS011;7476;49.404;11.152;2024-03-23T13:31:42;6.70;;;2.80;;
14768;SDS011;7476;49.404;11.152;2024-03-23T13:34:09;5.57;;;2.70;;
14768;SDS011;7476;49.404;11.152;2024-03-23T13:36:35;3.73;;;2.70;;
14768;SDS011;7476;49.404;11.152;2024-03-23T13:39:01;3.57;;;2.57;;
14768;SDS011;7476;49.404;11.152;2024-03-23T13:41:32;5.57;;;2.80;;
14768;SDS011;7476;49.404;11.152;2024-03-23T13:43:59;7.13;;;2.70;;
14768;SDS011;7476;49.404;11.152;2024-03-23T13:46:24;3.73;;;2.43;;
14768;SDS011;7476;49.404;11.152;2024-03-23T13:48:51;4.00;;;2.50;;
14768;SDS011;7476;49.404;11.152;2024-03-23T13:51:22;5.10;;;2.60;;
14768;SDS011;7476;49.404;11.152;2024-03-23T13:53:50;5.67;;;2.73;;
14768;SDS011;7476;49.404;11.152;2024-03-23T13:56:16;5.17;;;2.53;;
14768;SDS011;7476;49.404;11.152;2024-03-23T13:58:44;4.43;;;2.70;;
14768;SDS011;7476;49.404;11.152;2024-03-23T14:01:11;5.57;;;2.60;;
14768;SDS011;7476;49.404;11.152;2024-03-23T14:03:39;3.07;;;2.30;;
14768;SDS011;7476;49.404;11.152;2024-03-23T14:06:05;3.57;;;2.20;;
14768;SDS011;7476;49.404;11.152;2024-03-23T14:08:32;4.60;;;2.77;;
14768;SDS011;7476;49.404;11.152;2024-03-23T14:11:00;4.77;;;2.77;;
14768;SDS011;7476;49.404;11.152;2024-03-23T14:13:28;7.73;;;2.67;;
14768;SDS011;7476;49.404;11.152;2024-03-23T14:15:55;5.37;;;2.53;;
14768;SDS011;7476;49.404;11.152;2024-03-23T14:18:22;4.70;;;2.23;;
14768;SDS011;7476;49.404;11.152;2024-03-23T14:20:47;5.30;;;2.43;;
14768;SDS011;7476;49.404;11.152;2024-03-23T14:23:14;5.23;;;2.47;;
14768;SDS011;7476;49.404;11.152;2024-03-23T14:25:40;3.70;;;2.20;;
14768;SDS011;7476;49.404;11.152;2024-03-23T14:28:06;3.20;;;2.20;;
14768;SDS011;7476;49.404;11.152;2024-03-23T14:30:38;3.57;;;2.30;;
14768;SDS011;7476;49.404;11.152;2024-03-23T14:33:07;4.33;;;2.20;;
14768;SDS011;7476;49.404;11.152;2024-03-23T14:35:32;5.07;;;2.13;;
14768;SDS011;7476;49.404;11.152;2024-03-23T14:37:59;5.07;;;2.10;;
14768;SDS011;7476;49.404;11.152;2024-03-23T14:40:25;5.43;;;2.30;;
14768;SDS011;7476;49.404;11.152;2024-03-23T14:42:52;4.50;;;2.30;;
14768;SDS011;7476;49.404;11.152;2024-03-23T14:45:18;4.53;;;2.50;;
14768;SDS011;7476;49.404;11.152;2024-03-23T14:47:45;3.80;;;2.20;;
14768;SDS011;7476;49.404;11.152;2024-03-23T14:50:12;4.80;;;2.00;;
14768;SDS011;7476;49.404;11.152;2024-03-23T14:52:40;5.97;;;2.40;;
14768;SDS011;7476;49.404;11.152;2024-03-23T14:55:07;4.47;;;2.10;;
14768;SDS011;7476;49.404;11.152;2024-03-23T14:57:34;3.57;;;2.20;;
14768;SDS011;7476;49.404;11.152;2024-03-23T15:00:00;4.37;;;2.40;;
14768;SDS011;7476;49.404;11.152;2024-03-23T15:02:30;7.00;;;2.60;;
14768;SDS011;7476;49.404;11.152;2024-03-23T15:04:56;3.43;;;2.10;;
14768;SDS011;7476;49.404;11.152;2024-03-23T15:07:25;2.80;;;2.20;;
14768;SDS011;7476;49.404;11.152;2024-03-23T15:09:51;3.23;;;2.20;;
14768;SDS011;7476;49.404;11.152;2024-03-23T15:12:18;4.33;;;2.67;;
14768;SDS011;7476;49.404;11.152;2024-03-23T15:14:44;4.67;;;2.23;;
14768;SDS011;7476;49.404;11.152;2024-03-23T15:17:12;5.20;;;3.00;;
14768;SDS011;7476;49.404;11.152;2024-03-23T15:19:38;5.23;;;2.57;;
14768;SDS011;7476;49.404;11.152;2024-03-23T15:22:05;6.23;;;3.00;;
14768;SDS011;7476;49.404;11.152;2024-03-23T15:24:32;5.30;;;2.40;;
14768;SDS011;7476;49.404;11.152;2024-03-23T15:27:00;5.33;;;2.93;;
14768;SDS011;7476;49.404;11.152;2024-03-23T15:29:25;6.80;;;2.87;;
14768;SDS011;7476;49.404;11.152;2024-03-23T15:31:52;5.93;;;2.70;;
14768;SDS011;7476;49.404;11.152;2024-03-23T15:34:18;3.53;;;2.57;;
14768;SDS011;7476;49.404;11.152;2024-03-23T15:36:46;2.70;;;2.17;;
14768;SDS011;7476;49.404;11.152;2024-03-23T15:39:13;6.70;;;2.77;;
14768;SDS011;7476;49.404;11.152;2024-03-23T15:41:41;3.67;;;2.00;;